Time;durP1;ratioP1;P1;durP2;ratioP2;P2;SDS_P1;SDS_P2;PMS_P1;PMS_P2;Temp;Humidity;BMP_temperature;BMP_pressure;BME280_temperature;BME280_humidity;BME280_pressure;Samples;Min_cycle;Max_cycle;Signal;HPM_P1;HPM_P2
2022/09/20 00:01:06;;;;;;;0.10;0.10;;;11.20;81.70;;;;;;5049371;28;20180;-73
2022/09/20 00:03:33;;;;;;;0.30;0.30;;;11.20;81.10;;;;;;5048907;28;20690;-72
2022/09/20 00:06:03;;;;;;;0.50;0.50;;;11.10;81.40;;;;;;5045210;28;20179;-73
2022/09/20 00:08:29;;;;;;;0.40;0.40;;;11.00;81.30;;;;;;5048809;28;20332;-72
2022/09/20 00:11:03;;;;;;;0.20;0.20;;;11.00;81.20;;;;;;5049441;28;20187;-73
2022/09/20 00:13:29;;;;;;;1.05;0.32;;;10.90;81.30;;;;;;5049342;28;20195;-71
2022/09/20 00:15:55;;;;;;;0.30;0.30;;;10.90;81.50;;;;;;5048126;28;20187;-72
2022/09/20 00:18:21;;;;;;;0.30;0.30;;;10.80;81.90;;;;;;5044694;28;20214;-72
2022/09/20 00:20:48;;;;;;;0.40;0.40;;;10.80;82.00;;;;;;5047374;28;20196;-73
2022/09/20 00:23:14;;;;;;;0.40;0.40;;;10.80;81.80;;;;;;5053414;28;20203;-71
2022/09/20 00:25:40;;;;;;;0.30;0.30;;;10.90;81.70;;;;;;5049708;28;20190;-71
2022/09/20 00:28:07;;;;;;;0.20;0.20;;;10.80;81.70;;;;;;5056202;28;20183;-72
2022/09/20 00:30:33;;;;;;;0.30;0.30;;;10.80;81.90;;;;;;5051962;28;20186;-71
2022/09/20 00:32:59;;;;;;;0.20;0.20;;;10.70;82.20;;;;;;5045852;28;20206;-73
2022/09/20 00:35:25;;;;;;;0.20;0.20;;;10.70;82.10;;;;;;5047736;28;20179;-73
2022/09/20 00:37:50;;;;;;;0.43;0.43;;;10.70;81.80;;;;;;5060947;28;20248;-73
2022/09/20 00:40:21;;;;;;;0.20;0.20;;;10.90;81.20;;;;;;5055414;28;20191;-73
2022/09/20 00:42:48;;;;;;;0.22;0.22;;;10.90;81.10;;;;;;5051697;28;20179;-74
2022/09/20 00:45:24;;;;;;;0.28;0.28;;;10.90;81.50;;;;;;5055893;28;20645;-73
2022/09/20 00:48:17;;;;;;;0.20;0.20;;;10.80;81.60;;;;;;5050614;28;20638;-71
2022/09/20 00:50:48;;;;;;;0.25;0.25;;;10.80;81.20;;;;;;5050757;28;20817;-72
2022/09/20 00:53:32;;;;;;;0.20;0.20;;;10.70;81.30;;;;;;5050377;28;21893;-72
2022/09/20 00:56:16;;;;;;;0.30;0.30;;;10.60;81.70;;;;;;5053962;28;20361;-73
2022/09/20 00:59:07;;;;;;;0.20;0.20;;;10.60;81.90;;;;;;5047984;28;20222;-72
2022/09/20 01:01:33;;;;;;;0.20;0.20;;;10.60;81.80;;;;;;5052754;28;20223;-72
2022/09/20 01:03:59;;;;;;;0.20;0.20;;;10.60;81.80;;;;;;5053107;28;20308;-72
2022/09/20 01:06:25;;;;;;;0.20;0.20;;;10.60;81.40;;;;;;5056572;28;20190;-72
2022/09/20 01:08:53;;;;;;;0.20;0.20;;;10.50;81.70;;;;;;5053418;28;20182;-72
2022/09/20 01:11:19;;;;;;;0.30;0.30;;;10.50;81.40;;;;;;5053325;28;20654;-72
2022/09/20 01:13:44;;;;;;;0.30;0.30;;;10.50;81.30;;;;;;5056711;28;20180;-72
2022/09/20 01:16:14;;;;;;;0.30;0.30;;;10.60;80.70;;;;;;5050074;28;21917;-71
2022/09/20 01:18:41;;;;;;;0.30;0.30;;;10.70;80.70;;;;;;5050843;28;20219;-71
2022/09/20 01:21:08;;;;;;;0.40;0.40;;;10.60;80.70;;;;;;5049688;28;20217;-72
2022/09/20 01:23:49;;;;;;;0.40;0.40;;;10.60;80.60;;;;;;5052863;28;20188;-72
2022/09/20 01:26:21;;;;;;;0.32;0.32;;;10.60;80.10;;;;;;5045381;28;20191;-72
2022/09/20 01:28:50;;;;;;;0.40;0.40;;;10.60;80.10;;;;;;5052180;28;20291;-72
2022/09/20 01:31:23;;;;;;;0.28;0.28;;;10.60;79.90;;;;;;5046169;28;20184;-72
2022/09/20 01:34:00;;;;;;;0.30;0.30;;;10.50;79.70;;;;;;5052933;28;20195;-72
2022/09/20 01:36:53;;;;;;;0.40;0.40;;;10.50;79.80;;;;;;5053390;28;20219;-71
2022/09/20 01:40:00;;;;;;;0.35;0.35;;;10.40;79.80;;;;;;5053240;28;20243;-72
2022/09/20 01:42:32;;;;;;;0.40;0.40;;;10.40;80.10;;;;;;5024401;28;20196;-72
2022/09/20 01:45:16;;;;;;;0.30;0.30;;;10.40;80.30;;;;;;5025584;28;20211;-73
2022/09/20 01:48:00;;;;;;;0.50;0.50;;;10.30;80.50;;;;;;5028329;28;20196;-73
2022/09/20 01:50:41;;;;;;;0.28;0.28;;;10.30;80.70;;;;;;5027018;28;20934;-72
2022/09/20 01:53:16;;;;;;;1.00;0.30;;;10.20;80.50;;;;;;5024738;28;20254;-73
2022/09/20 01:55:49;;;;;;;0.30;0.30;;;10.20;80.60;;;;;;5023160;28;20182;-73
2022/09/20 01:58:53;;;;;;;0.40;0.40;;;10.30;80.70;;;;;;5032286;28;20337;-72
2022/09/20 02:01:43;;;;;;;0.30;0.30;;;10.20;81.00;;;;;;4968355;28;20182;-73
2022/09/20 02:04:26;;;;;;;0.20;0.20;;;10.10;81.90;;;;;;4967582;28;20220;-73
2022/09/20 02:07:09;;;;;;;0.40;0.40;;;10.00;82.20;;;;;;4966696;28;20226;-73
2022/09/20 02:10:02;;;;;;;0.37;0.37;;;10.00;82.00;;;;;;4974419;28;20210;-73
2022/09/20 02:12:54;;;;;;;0.20;0.20;;;10.00;82.10;;;;;;4983626;28;20244;-72
2022/09/20 02:15:56;;;;;;;0.30;0.30;;;9.90;82.00;;;;;;4972428;28;20276;-72
2022/09/20 02:18:56;;;;;;;0.40;0.40;;;10.00;82.10;;;;;;4979187;28;20271;-73
2022/09/20 02:21:42;;;;;;;0.50;0.50;;;9.80;82.40;;;;;;5006620;28;20189;-72
2022/09/20 02:24:29;;;;;;;0.40;0.40;;;9.90;82.20;;;;;;5007204;28;20274;-71
2022/09/20 02:27:24;;;;;;;0.30;0.30;;;9.80;82.20;;;;;;5010951;28;20191;-72
2022/09/20 02:30:17;;;;;;;0.37;0.37;;;9.80;82.00;;;;;;4943696;29;20199;-72
2022/09/20 02:32:48;;;;;;;0.33;0.33;;;9.70;82.80;;;;;;4942617;29;20612;-72
2022/09/20 02:35:23;;;;;;;0.40;0.40;;;9.70;82.80;;;;;;4947174;28;20649;-72
2022/09/20 02:38:27;;;;;;;1.83;0.50;;;9.60;82.90;;;;;;4954404;28;20190;-73
2022/09/20 02:41:04;;;;;;;0.40;0.40;;;9.50;83.10;;;;;;4924810;29;21240;-72
2022/09/20 02:43:41;;;;;;;0.37;0.37;;;9.50;83.40;;;;;;4923684;29;20223;-72
2022/09/20 02:46:34;;;;;;;0.30;0.30;;;9.50;83.60;;;;;;4925216;29;20622;-72
2022/09/20 02:49:07;;;;;;;0.40;0.40;;;9.50;83.50;;;;;;4924188;29;20578;-72
2022/09/20 02:51:41;;;;;;;0.37;0.37;;;9.50;83.50;;;;;;4925571;29;20202;-73
2022/09/20 02:54:21;;;;;;;0.70;0.70;;;9.50;84.40;;;;;;4923694;29;20195;-73
2022/09/20 02:57:02;;;;;;;0.47;0.43;;;9.40;85.10;;;;;;4924142;29;20198;-73
2022/09/20 02:59:44;;;;;;;0.30;0.30;;;9.40;85.50;;;;;;4922659;29;20238;-73
2022/09/20 03:02:43;;;;;;;0.40;0.40;;;9.20;86.30;;;;;;4922996;29;20274;-72
2022/09/20 03:05:36;;;;;;;0.40;0.40;;;9.20;86.40;;;;;;4924443;29;20215;-71
2022/09/20 03:08:10;;;;;;;0.40;0.40;;;9.20;85.80;;;;;;4976817;28;20272;-71
2022/09/20 03:10:39;;;;;;;0.50;0.50;;;9.20;86.40;;;;;;4975813;28;20240;-72
2022/09/20 03:13:07;;;;;;;0.40;0.40;;;9.20;85.80;;;;;;4975253;28;20201;-73
2022/09/20 03:15:52;;;;;;;0.50;0.50;;;9.10;86.40;;;;;;4978289;28;20189;-73
2022/09/20 03:18:27;;;;;;;0.50;0.50;;;9.10;85.90;;;;;;5020276;28;20228;-73
2022/09/20 03:20:52;;;;;;;0.30;0.30;;;9.20;85.80;;;;;;5012302;28;20211;-72
2022/09/20 03:23:18;;;;;;;0.43;0.43;;;9.20;85.90;;;;;;5010094;28;20189;-72
2022/09/20 03:25:47;;;;;;;0.40;0.40;;;9.10;86.30;;;;;;5016071;28;20189;-72
2022/09/20 03:28:22;;;;;;;0.40;0.40;;;9.10;85.90;;;;;;5013816;28;20228;-72
2022/09/20 03:30:58;;;;;;;0.50;0.50;;;9.20;85.70;;;;;;5008456;28;20191;-73
2022/09/20 03:34:02;;;;;;;0.40;0.40;;;9.20;85.70;;;;;;5013705;28;20235;-72
2022/09/20 03:36:46;;;;;;;0.60;0.60;;;9.20;85.60;;;;;;4990712;28;20193;-72
2022/09/20 03:39:33;;;;;;;0.50;0.50;;;9.30;85.20;;;;;;4988030;28;20230;-72
2022/09/20 03:42:14;;;;;;;0.50;0.50;;;9.30;85.00;;;;;;4987143;28;20200;-72
2022/09/20 03:44:58;;;;;;;0.50;0.50;;;9.10;85.50;;;;;;4991185;28;20588;-72
2022/09/20 03:47:45;;;;;;;0.33;0.33;;;9.20;85.60;;;;;;4985801;28;20669;-73
2022/09/20 03:50:22;;;;;;;0.40;0.40;;;9.10;85.60;;;;;;4996366;28;20205;-72
2022/09/20 03:52:50;;;;;;;0.30;0.30;;;9.20;85.30;;;;;;4998455;28;20311;-71
2022/09/20 03:55:40;;;;;;;0.40;0.40;;;9.20;85.10;;;;;;5000361;28;20268;-72
2022/09/20 03:58:27;;;;;;;0.47;0.43;;;9.20;84.60;;;;;;4990264;28;20247;-73
2022/09/20 04:01:17;;;;;;;0.30;0.30;;;9.20;84.60;;;;;;4989605;28;20189;-73
2022/09/20 04:03:53;;;;;;;0.40;0.40;;;9.30;84.30;;;;;;4997804;28;20197;-73
2022/09/20 04:06:46;;;;;;;0.60;0.60;;;9.30;84.00;;;;;;4983299;28;20194;-72
2022/09/20 04:09:32;;;;;;;0.33;0.33;;;9.30;83.70;;;;;;4989600;28;20200;-74
2022/09/20 04:12:25;;;;;;;0.40;0.40;;;9.20;84.30;;;;;;5018931;28;20201;-74
2022/09/20 04:15:09;;;;;;;0.37;0.37;;;9.20;84.50;;;;;;5048098;28;20565;-75
2022/09/20 04:18:10;;;;;;;1.20;0.30;;;9.20;84.20;;;;;;5047129;28;20265;-75
2022/09/20 04:20:45;;;;;;;0.33;0.33;;;9.20;84.10;;;;;;5005419;28;20589;-75
2022/09/20 04:23:29;;;;;;;0.40;0.40;;;9.20;83.90;;;;;;4991834;28;20197;-75
2022/09/20 04:25:54;;;;;;;0.50;0.50;;;9.10;84.50;;;;;;5004342;28;20225;-75
2022/09/20 04:28:29;;;;;;;0.30;0.30;;;9.20;84.50;;;;;;4982700;28;20275;-74
2022/09/20 04:31:02;;;;;;;0.30;0.30;;;9.20;84.10;;;;;;4989739;28;20295;-76
2022/09/20 04:33:38;;;;;;;0.30;0.30;;;9.20;84.40;;;;;;4986000;28;20349;-76
2022/09/20 04:36:28;;;;;;;0.43;0.43;;;9.20;84.80;;;;;;4987047;28;20192;-76
2022/09/20 04:39:19;;;;;;;0.40;0.40;;;9.20;84.60;;;;;;4986339;28;20279;-75
2022/09/20 04:42:15;;;;;;;0.50;0.50;;;9.20;84.60;;;;;;4978988;28;20205;-76
2022/09/20 04:44:52;;;;;;;0.60;0.50;;;9.10;84.90;;;;;;4981525;28;20237;-76
2022/09/20 04:47:32;;;;;;;0.43;0.43;;;9.10;85.10;;;;;;4980760;28;20211;-75
2022/09/20 04:50:35;;;;;;;0.50;0.50;;;9.20;84.90;;;;;;4981449;28;20684;-76
2022/09/20 04:53:23;;;;;;;0.50;0.50;;;9.20;84.80;;;;;;4961179;28;20222;-75
2022/09/20 04:56:19;;;;;;;0.40;0.40;;;9.20;84.90;;;;;;4961414;28;20226;-73
2022/09/20 04:59:04;;;;;;;0.40;0.40;;;9.20;84.80;;;;;;4961233;28;20230;-73
2022/09/20 05:01:54;;;;;;;0.40;0.40;;;9.10;85.10;;;;;;4959900;28;20186;-73
2022/09/20 05:04:25;;;;;;;1.93;0.50;;;9.10;85.10;;;;;;4959634;28;20202;-74
2022/09/20 05:07:31;;;;;;;0.40;0.40;;;9.20;85.00;;;;;;4956584;28;20195;-74
2022/09/20 05:09:59;;;;;;;0.30;0.30;;;9.20;85.00;;;;;;4945097;28;20207;-71
2022/09/20 05:12:56;;;;;;;1.47;0.50;;;9.10;85.60;;;;;;4952010;28;20253;-72
2022/09/20 05:15:53;;;;;;;0.40;0.40;;;9.20;85.00;;;;;;4915494;29;20203;-73
2022/09/20 05:18:55;;;;;;;0.60;0.60;;;9.20;85.20;;;;;;4917240;29;20305;-73
2022/09/20 05:21:22;;;;;;;0.40;0.40;;;9.40;84.70;;;;;;4931202;28;20198;-74
2022/09/20 05:24:17;;;;;;;0.33;0.33;;;9.40;85.00;;;;;;4935288;29;20290;-72
2022/09/20 05:27:12;;;;;;;0.30;0.30;;;9.40;85.00;;;;;;4935951;29;20887;-72
2022/09/20 05:29:50;;;;;;;0.37;0.37;;;9.50;84.40;;;;;;4933759;29;20196;-72
2022/09/20 05:32:31;;;;;;;0.63;0.63;;;9.60;84.10;;;;;;4932762;29;20726;-75
2022/09/20 05:35:19;;;;;;;0.40;0.40;;;9.60;84.20;;;;;;4940276;29;20222;-72
2022/09/20 05:37:50;;;;;;;2.20;0.37;;;9.70;84.40;;;;;;4907897;29;20236;-73
2022/09/20 05:40:34;;;;;;;0.40;0.40;;;9.60;84.70;;;;;;4907990;29;20292;-72
2022/09/20 05:43:10;;;;;;;0.40;0.40;;;9.70;84.40;;;;;;4907952;29;20259;-73
2022/09/20 05:46:12;;;;;;;0.75;0.30;;;9.60;84.80;;;;;;4906205;29;20279;-73
2022/09/20 05:48:43;;;;;;;0.40;0.30;;;9.70;84.80;;;;;;4926696;29;20388;-74
2022/09/20 05:51:37;;;;;;;0.40;0.40;;;9.70;84.80;;;;;;4925588;29;20222;-73
2022/09/20 05:54:26;;;;;;;0.40;0.40;;;9.70;85.20;;;;;;5008526;28;20288;-73
2022/09/20 05:57:06;;;;;;;0.30;0.30;;;9.80;84.70;;;;;;4990365;28;20735;-74
2022/09/20 06:00:12;;;;;;;0.30;0.27;;;9.70;84.40;;;;;;4987830;28;20229;-73
2022/09/20 06:02:47;;;;;;;0.30;0.30;;;9.70;84.70;;;;;;4995851;28;20197;-73
2022/09/20 06:05:33;;;;;;;0.60;0.60;;;9.70;84.50;;;;;;4992642;28;20189;-73
2022/09/20 06:08:02;;;;;;;0.50;0.40;;;9.80;84.40;;;;;;4995668;28;21018;-73
2022/09/20 06:10:49;;;;;;;1.30;0.50;;;9.90;84.20;;;;;;4976367;28;20185;-73
2022/09/20 06:13:14;;;;;;;0.30;0.30;;;9.80;84.20;;;;;;4985317;28;20228;-73
2022/09/20 06:16:05;;;;;;;0.40;0.40;;;9.90;84.20;;;;;;5039575;28;20752;-74
2022/09/20 06:19:16;;;;;;;0.40;0.40;;;9.90;83.90;;;;;;5054679;28;20226;-73
2022/09/20 06:21:52;;;;;;;0.32;0.32;;;10.10;83.90;;;;;;4983528;28;20243;-74
2022/09/20 06:24:23;;;;;;;0.45;0.45;;;10.20;83.20;;;;;;4988001;28;20272;-74
2022/09/20 06:26:54;;;;;;;0.50;0.50;;;10.30;83.20;;;;;;4985620;28;20329;-74
2022/09/20 06:29:32;;;;;;;0.50;0.50;;;10.30;83.50;;;;;;4984041;28;20605;-73
2022/09/20 06:31:58;;;;;;;0.40;0.40;;;10.20;83.60;;;;;;4984899;28;20219;-73
2022/09/20 06:34:27;;;;;;;0.40;0.40;;;10.20;84.20;;;;;;4986574;28;20672;-74
2022/09/20 06:43:47;;;;;;;0.30;0.30;;;10.40;83.60;;;;;;4958415;28;20208;-73
2022/09/20 06:46:40;;;;;;;0.50;0.40;;;10.50;83.40;;;;;;4955604;28;21617;-74
2022/09/20 06:49:08;;;;;;;0.43;0.20;;;10.60;82.90;;;;;;4959261;28;20193;-74
2022/09/20 06:51:42;;;;;;;3.40;0.30;;;10.70;82.50;;;;;;4961268;28;20313;-73
2022/09/20 06:54:22;;;;;;;0.40;0.40;;;10.80;82.30;;;;;;4984399;28;20525;-73
2022/09/20 06:56:54;;;;;;;0.30;0.30;;;10.90;82.00;;;;;;4995462;28;20294;-72
2022/09/20 06:59:21;;;;;;;0.30;0.30;;;10.90;81.40;;;;;;4995880;28;20221;-73
2022/09/20 07:01:50;;;;;;;0.28;0.28;;;10.90;81.20;;;;;;5000828;28;20247;-72
2022/09/20 07:04:34;;;;;;;0.20;0.20;;;10.90;81.20;;;;;;4983847;28;20229;-73
2022/09/20 07:07:07;;;;;;;0.32;0.32;;;11.00;80.90;;;;;;5002379;28;20184;-72
2022/09/20 07:09:55;;;;;;;0.22;0.22;;;11.10;80.30;;;;;;4993401;28;20283;-72
2022/09/20 07:12:34;;;;;;;0.22;0.22;;;11.20;80.30;;;;;;4983474;28;20197;-72
2022/09/20 07:15:00;;;;;;;0.32;0.30;;;11.20;80.10;;;;;;4990446;28;21590;-73
2022/09/20 07:17:26;;;;;;;0.28;0.28;;;11.30;80.20;;;;;;5025832;28;20196;-73
2022/09/20 07:19:51;;;;;;;0.52;0.30;;;11.40;79.90;;;;;;5040001;28;20216;-73
2022/09/20 07:22:30;;;;;;;0.40;0.40;;;11.40;79.80;;;;;;5013717;28;20179;-74
2022/09/20 07:30:26;;;;;;;0.35;0.35;;;11.70;79.10;;;;;;3367556;26;20527;-73
2022/09/20 07:36:12;;;;;;;0.28;0.28;;;11.80;78.60;;;;;;5034367;28;20279;-73
2022/09/20 07:47:24;;;;;;;0.40;0.40;;;12.30;77.50;;;;;;5046173;28;20581;-74
2022/09/20 07:49:56;;;;;;;0.20;0.20;;;12.40;78.00;;;;;;5061931;28;20178;-75
2022/09/20 07:54:53;;;;;;;0.40;0.40;;;12.60;77.10;;;;;;4582401;23;20242;-73
2022/09/20 07:57:36;;;;;;;0.30;0.30;;;12.70;77.50;;;;;;5058974;28;21376;-72
2022/09/20 08:00:06;;;;;;;0.40;0.40;;;12.90;77.40;;;;;;5062154;28;20241;-74
2022/09/20 08:02:31;;;;;;;0.20;0.20;;;13.10;76.50;;;;;;5058637;28;20243;-73
2022/09/20 08:04:57;;;;;;;0.25;0.25;;;13.30;76.70;;;;;;5078893;28;20183;-73
2022/09/20 08:07:23;;;;;;;0.30;0.30;;;13.50;74.90;;;;;;5073371;28;20259;-72
2022/09/20 08:09:49;;;;;;;0.30;0.30;;;13.70;74.30;;;;;;5073856;28;20206;-74
2022/09/20 08:12:15;;;;;;;0.20;0.20;;;13.90;73.60;;;;;;5066585;28;20175;-74
2022/09/20 08:14:40;;;;;;;0.40;0.40;;;14.20;73.40;;;;;;5057764;28;20560;-73
2022/09/20 08:17:06;;;;;;;0.30;0.30;;;14.50;72.30;;;;;;5070622;28;20183;-75
2022/09/20 08:19:32;;;;;;;1.25;0.30;;;15.00;71.70;;;;;;5078193;28;20766;-73
2022/09/20 08:21:57;;;;;;;0.20;0.20;;;15.60;70.30;;;;;;5082004;28;20288;-74
2022/09/20 08:24:25;;;;;;;0.28;0.28;;;16.30;68.30;;;;;;5071106;28;20592;-75
2022/09/20 08:26:51;;;;;;;0.10;0.10;;;16.90;66.90;;;;;;5047696;28;20244;-74
2022/09/20 08:29:16;;;;;;;1.27;0.30;;;17.20;62.90;;;;;;5075948;28;20182;-73
2022/09/20 08:31:43;;;;;;;0.40;0.25;;;17.30;62.60;;;;;;5068944;28;20202;-73
2022/09/20 08:34:11;;;;;;;0.20;0.20;;;17.40;63.40;;;;;;5067713;28;20202;-74
2022/09/20 08:36:40;;;;;;;0.20;0.10;;;17.70;62.10;;;;;;5069505;28;20244;-75
2022/09/20 08:39:06;;;;;;;0.20;0.20;;;18.10;62.00;;;;;;5050449;28;20207;-74
2022/09/20 08:42:11;;;;;;;0.30;0.30;;;18.60;60.10;;;;;;5073785;28;20198;-74
2022/09/20 08:44:51;;;;;;;0.20;0.20;;;18.90;58.40;;;;;;4988140;28;20215;-73
2022/09/20 08:47:26;;;;;;;0.20;0.20;;;19.20;60.70;;;;;;5009359;28;20211;-75
2022/09/20 08:49:54;;;;;;;0.20;0.20;;;19.70;60.10;;;;;;5015796;28;20180;-74
2022/09/20 08:52:39;;;;;;;0.20;0.20;;;20.10;60.10;;;;;;5010884;28;20637;-75
2022/09/20 08:55:20;;;;;;;0.20;0.20;;;20.30;57.00;;;;;;5011499;28;20297;-75
2022/09/20 08:57:49;;;;;;;0.40;0.40;;;20.00;58.00;;;;;;5010023;28;20187;-73
2022/09/20 09:00:24;;;;;;;0.25;0.25;;;19.60;59.50;;;;;;5012033;28;20701;-74
2022/09/20 09:02:53;;;;;;;0.20;0.20;;;19.60;59.00;;;;;;5012773;28;20184;-75
2022/09/20 09:05:44;;;;;;;0.20;0.20;;;19.90;56.60;;;;;;5007199;28;20181;-75
2022/09/20 09:08:15;;;;;;;0.22;0.20;;;20.40;56.70;;;;;;5015144;28;20268;-74
2022/09/20 09:10:43;;;;;;;0.20;0.20;;;20.60;57.60;;;;;;5010888;28;20276;-75
2022/09/20 09:13:53;;;;;;;0.25;0.25;;;20.80;56.10;;;;;;5007982;28;20193;-74
2022/09/20 09:16:22;;;;;;;0.30;0.30;;;20.90;58.10;;;;;;5010120;28;20192;-75
2022/09/20 09:18:50;;;;;;;0.20;0.20;;;21.20;59.00;;;;;;5016974;28;20208;-74
2022/09/20 09:21:25;;;;;;;0.20;0.20;;;21.40;58.20;;;;;;5074532;28;20762;-73
2022/09/20 09:24:02;;;;;;;0.52;0.25;;;21.40;57.00;;;;;;5076548;28;20193;-75
2022/09/20 09:26:38;;;;;;;0.20;0.20;;;21.30;57.80;;;;;;5075234;28;20178;-73
2022/09/20 09:29:10;;;;;;;0.40;0.40;;;21.10;54.60;;;;;;5073168;28;20174;-73
2022/09/20 09:31:38;;;;;;;1.98;0.20;;;20.70;55.60;;;;;;5080206;28;20183;-74
2022/09/20 09:34:04;;;;;;;0.30;0.30;;;20.30;56.70;;;;;;5071411;28;20574;-73
2022/09/20 09:36:30;;;;;;;0.22;0.22;;;20.00;57.70;;;;;;5080106;28;20583;-75
2022/09/20 09:39:16;;;;;;;0.20;0.20;;;20.20;59.00;;;;;;5076841;28;20202;-74
2022/09/20 09:41:42;;;;;;;0.15;0.15;;;20.60;56.00;;;;;;5072063;28;20186;-74
2022/09/20 09:44:34;;;;;;;0.20;0.20;;;20.60;57.60;;;;;;5058122;28;20194;-74
2022/09/20 09:47:00;;;;;;;0.20;0.20;;;20.60;56.50;;;;;;5076102;28;20182;-74
2022/09/20 09:49:38;;;;;;;0.10;0.10;;;20.40;57.50;;;;;;5078802;28;20191;-74
2022/09/20 09:52:14;;;;;;;0.20;0.20;;;20.60;55.60;;;;;;5072419;28;20618;-73
2022/09/20 09:54:49;;;;;;;0.15;0.15;;;21.10;57.90;;;;;;5072084;28;20230;-73
2022/09/20 09:57:36;;;;;;;0.20;0.20;;;21.90;53.50;;;;;;5074003;28;20170;-72
2022/09/20 10:00:17;;;;;;;0.30;0.30;;;22.40;52.40;;;;;;5073878;28;20221;-73
2022/09/20 10:03:04;;;;;;;0.17;0.17;;;22.50;54.50;;;;;;5071116;28;20183;-73
2022/09/20 10:05:48;;;;;;;0.20;0.20;;;22.50;54.60;;;;;;5076699;28;20193;-72
2022/09/20 10:08:43;;;;;;;0.20;0.20;;;22.90;55.60;;;;;;5075334;28;20969;-72
2022/09/20 10:11:21;;;;;;;0.20;0.20;;;23.80;54.80;;;;;;5075028;28;20564;-73
2022/09/20 10:13:56;;;;;;;0.10;0.10;;;24.70;48.50;;;;;;5072596;28;20340;-74
2022/09/20 10:16:40;;;;;;;0.10;0.10;;;25.00;49.30;;;;;;5073799;28;20187;-72
2022/09/20 10:19:11;;;;;;;0.17;0.17;;;25.00;48.10;;;;;;5075920;28;20684;-72
2022/09/20 10:21:47;;;;;;;0.20;0.20;;;24.40;51.40;;;;;;5084177;28;20690;-72
2022/09/20 10:24:29;;;;;;;0.20;0.20;;;23.70;50.30;;;;;;5057492;28;20194;-74
2022/09/20 10:27:07;;;;;;;0.20;0.20;;;23.20;51.80;;;;;;5060613;28;20190;-74
2022/09/20 10:30:09;;;;;;;0.10;0.10;;;22.90;50.90;;;;;;5073434;28;20287;-73
2022/09/20 10:32:35;;;;;;;0.20;0.20;;;23.00;51.40;;;;;;5076322;28;20179;-73
2022/09/20 10:35:18;;;;;;;0.20;0.20;;;23.10;49.80;;;;;;5077965;28;20176;-73
2022/09/20 10:38:13;;;;;;;0.10;0.10;;;23.40;51.70;;;;;;5077717;28;20636;-74
2022/09/20 10:44:00;;;;;;;0.20;0.20;;;24.00;48.10;;;;;;5076976;28;20198;-73
2022/09/20 10:46:30;;;;;;;0.30;0.30;;;24.00;48.10;;;;;;5072087;28;20285;-75
2022/09/20 10:49:33;;;;;;;0.40;0.30;;;24.10;47.40;;;;;;5077806;28;20269;-74
2022/09/20 10:52:31;;;;;;;0.22;0.22;;;24.40;50.40;;;;;;4993581;28;20320;-74
2022/09/20 10:55:14;;;;;;;0.30;0.30;;;24.90;47.40;;;;;;4877103;29;20209;-74
2022/09/20 10:58:18;;;;;;;1.83;0.35;;;25.20;47.00;;;;;;4863032;29;21780;-74
2022/09/20 11:01:08;;;;;;;0.40;0.40;;;24.90;46.90;;;;;;4866190;29;20220;-74
2022/09/20 11:03:51;;;;;;;0.40;0.40;;;25.10;47.50;;;;;;4881062;29;20514;-75
2022/09/20 11:06:38;;;;;;;0.45;0.38;;;25.40;48.00;;;;;;4881653;29;20188;-74
2022/09/20 11:09:08;;;;;;;0.30;0.30;;;25.40;45.90;;;;;;4881560;29;20208;-75
2022/09/20 11:11:41;;;;;;;0.60;0.60;;;25.30;47.90;;;;;;4868252;29;20810;-75
2022/09/20 11:14:11;;;;;;;0.40;0.40;;;25.60;49.40;;;;;;4883790;29;20944;-76
2022/09/20 11:17:11;;;;;;;0.60;0.60;;;25.80;45.70;;;;;;4884083;29;20790;-75
2022/09/20 11:19:55;;;;;;;0.43;0.43;;;25.30;45.20;;;;;;4840909;29;20228;-75
2022/09/20 11:22:32;;;;;;;0.50;0.50;;;25.00;45.90;;;;;;4846102;29;20298;-74
2022/09/20 11:25:05;;;;;;;0.40;0.40;;;25.00;46.30;;;;;;4845157;29;20696;-74
2022/09/20 11:27:38;;;;;;;0.47;0.40;;;25.00;46.30;;;;;;4851584;29;20202;-74
2022/09/20 11:30:18;;;;;;;0.38;0.38;;;25.10;46.60;;;;;;4900110;28;20658;-74
2022/09/20 11:33:00;;;;;;;0.30;0.30;;;25.10;46.80;;;;;;4982694;28;20409;-73
2022/09/20 11:35:44;;;;;;;0.32;0.32;;;25.00;46.20;;;;;;4999455;28;20212;-74
2022/09/20 11:38:31;;;;;;;0.30;0.30;;;24.80;47.50;;;;;;4977643;28;20185;-74
2022/09/20 11:41:03;;;;;;;0.30;0.30;;;25.00;49.10;;;;;;4994466;28;20711;-74
2022/09/20 11:43:31;;;;;;;0.30;0.30;;;25.10;46.70;;;;;;4999382;28;20185;-74
2022/09/20 11:46:02;;;;;;;0.30;0.30;;;25.00;47.30;;;;;;4994763;28;20183;-72
2022/09/20 11:48:41;;;;;;;0.20;0.20;;;24.90;46.10;;;;;;4975299;28;20181;-75
2022/09/20 11:51:12;;;;;;;0.30;0.30;;;24.30;48.50;;;;;;4980946;28;20601;-74
2022/09/20 11:53:56;;;;;;;0.30;0.30;;;24.30;46.60;;;;;;4994431;28;20201;-74
2022/09/20 11:56:24;;;;;;;0.30;0.30;;;24.30;47.60;;;;;;5033130;28;20187;-74
2022/09/20 11:58:56;;;;;;;1.75;0.30;;;24.40;47.50;;;;;;5056897;28;20198;-76
2022/09/20 12:01:36;;;;;;;0.35;0.35;;;24.60;47.80;;;;;;5083871;28;20193;-75
2022/09/20 12:04:22;;;;;;;0.40;0.40;;;24.80;48.30;;;;;;5073048;28;20183;-73
2022/09/20 12:07:01;;;;;;;0.20;0.20;;;25.20;47.40;;;;;;5058157;28;20193;-74
2022/09/20 12:09:37;;;;;;;0.22;0.22;;;25.50;48.80;;;;;;5073162;28;20210;-74
2022/09/20 12:12:40;;;;;;;0.30;0.30;;;25.70;48.00;;;;;;5078310;28;20207;-74
2022/09/20 12:15:21;;;;;;;0.38;0.38;;;26.10;46.50;;;;;;4969578;28;20570;-74
2022/09/20 12:17:46;;;;;;;1.63;0.40;;;25.50;45.80;;;;;;4975459;28;20180;-74
2022/09/20 12:20:33;;;;;;;0.40;0.40;;;25.20;46.50;;;;;;4974896;28;20228;-74
2022/09/20 12:23:41;;;;;;;0.30;0.30;;;24.70;46.80;;;;;;4993979;28;20220;-74
2022/09/20 12:26:20;;;;;;;0.30;0.30;;;24.20;47.00;;;;;;4951272;28;20190;-74
2022/09/20 12:29:22;;;;;;;0.30;0.30;;;23.90;49.10;;;;;;4950077;28;20192;-74
2022/09/20 12:31:50;;;;;;;0.30;0.30;;;23.80;47.30;;;;;;4899864;29;20252;-76
2022/09/20 12:34:18;;;;;;;0.30;0.30;;;24.00;47.20;;;;;;4900344;29;20207;-75
2022/09/20 12:36:55;;;;;;;0.30;0.30;;;24.20;49.60;;;;;;4901224;29;20193;-77
2022/09/20 12:39:33;;;;;;;0.30;0.30;;;24.60;46.40;;;;;;4903006;29;20686;-74
2022/09/20 12:42:05;;;;;;;1.45;0.45;;;24.80;48.00;;;;;;4892298;29;20635;-74
2022/09/20 12:44:39;;;;;;;0.40;0.40;;;24.90;46.50;;;;;;4895477;29;20645;-75
2022/09/20 12:47:10;;;;;;;0.38;0.38;;;24.50;46.70;;;;;;4897633;29;20288;-75
2022/09/20 12:55:44;;;;;;;1.20;0.35;;;24.40;47.30;;;;;;4960103;28;20197;-75
2022/09/20 12:58:13;;;;;;;4.93;0.50;;;24.60;49.50;;;;;;4957402;28;20257;-74
2022/09/20 13:00:59;;;;;;;0.30;0.30;;;24.90;47.80;;;;;;4941013;28;20624;-74
2022/09/20 13:03:35;;;;;;;0.28;0.28;;;25.40;45.50;;;;;;4982516;28;20227;-73
2022/09/20 13:06:07;;;;;;;1.20;0.20;;;25.40;44.40;;;;;;5028080;28;20224;-75
2022/09/20 13:08:52;;;;;;;0.32;0.32;;;25.10;44.20;;;;;;5057403;28;20198;-73
2022/09/20 13:11:26;;;;;;;0.20;0.20;;;25.00;46.00;;;;;;5079144;28;20198;-75
2022/09/20 13:14:31;;;;;;;0.30;0.30;;;25.10;46.60;;;;;;5074041;28;20182;-74
2022/09/20 13:17:29;;;;;;;0.40;0.40;;;25.30;47.00;;;;;;5071398;28;20645;-75
2022/09/20 13:19:56;;;;;;;0.40;0.40;;;25.50;44.80;;;;;;4972493;28;20228;-74
2022/09/20 13:22:35;;;;;;;0.40;0.40;;;25.50;45.60;;;;;;4966878;28;20197;-75
2022/09/20 13:25:04;;;;;;;0.40;0.40;;;25.50;46.00;;;;;;4963581;28;20193;-73
2022/09/20 13:27:58;;;;;;;0.43;0.43;;;25.60;45.10;;;;;;4969158;28;20177;-74
2022/09/20 13:30:28;;;;;;;0.30;0.30;;;25.90;45.20;;;;;;4959805;28;20194;-73
2022/09/20 13:32:54;;;;;;;0.40;0.40;;;26.20;45.10;;;;;;4966732;28;20213;-74
2022/09/20 13:35:28;;;;;;;0.50;0.50;;;26.40;45.00;;;;;;4965958;28;20217;-74
2022/09/20 13:37:54;;;;;;;0.32;0.32;;;26.60;42.80;;;;;;4967603;28;20225;-74
2022/09/20 13:40:33;;;;;;;0.35;0.35;;;26.60;42.80;;;;;;4979475;28;20401;-74
2022/09/20 13:43:05;;;;;;;0.25;0.25;;;26.40;44.80;;;;;;4976584;28;20303;-75
2022/09/20 13:45:32;;;;;;;0.25;0.25;;;26.30;44.90;;;;;;4983724;28;20200;-74
2022/09/20 13:48:00;;;;;;;0.20;0.20;;;26.30;44.20;;;;;;4982022;28;20182;-75
2022/09/20 13:50:25;;;;;;;0.22;0.22;;;26.30;44.50;;;;;;4964555;28;20287;-74
2022/09/20 13:52:57;;;;;;;0.30;0.30;;;26.40;42.70;;;;;;4984122;28;20280;-74
2022/09/20 13:55:28;;;;;;;0.30;0.30;;;26.20;43.40;;;;;;4991175;28;20985;-75
2022/09/20 13:57:56;;;;;;;0.20;0.20;;;26.30;45.10;;;;;;5077728;28;20179;-74
2022/09/20 14:00:26;;;;;;;0.30;0.30;;;26.40;44.20;;;;;;5054894;28;20842;-75
2022/09/20 14:02:53;;;;;;;0.35;0.20;;;26.50;45.80;;;;;;5071343;28;20217;-75
2022/09/20 14:05:23;;;;;;;0.20;0.20;;;26.60;44.00;;;;;;5072996;28;20178;-75
2022/09/20 14:07:49;;;;;;;0.20;0.20;;;26.70;42.70;;;;;;5073101;28;20186;-75
2022/09/20 14:10:42;;;;;;;0.30;0.30;;;26.50;43.50;;;;;;5077594;28;20178;-74
2022/09/20 14:13:15;;;;;;;0.30;0.30;;;26.30;44.20;;;;;;5054710;28;20704;-75
2022/09/20 14:15:45;;;;;;;0.30;0.22;;;26.30;44.60;;;;;;5079467;28;20183;-75
2022/09/20 14:18:15;;;;;;;0.10;0.10;;;26.10;44.60;;;;;;5076324;28;20209;-75
2022/09/20 14:20:43;;;;;;;0.20;0.20;;;25.90;45.80;;;;;;5073162;28;20691;-75
2022/09/20 14:23:21;;;;;;;0.30;0.30;;;25.70;45.70;;;;;;5071863;28;20191;-75